Time;durP1;ratioP1;P1;durP2;ratioP2;P2;SDS_P1;SDS_P2;PMS_P1;PMS_P2;Temp;Humidity;BMP_temperature;BMP_pressure;BME280_temperature;BME280_humidity;BME280_pressure;Samples;Min_cycle;Max_cycle;Signal;HPM_P1;HPM_P2
2023/03/19 00:02:09;;;;;;;0.50;0.50;;;;;;;28.16;24.94;100651.19;5085679;28;20418;-51
2023/03/19 00:04:34;;;;;;;1.25;0.40;;;;;;;28.18;24.62;100646.19;5088090;28;20032;-51
2023/03/19 00:07:00;;;;;;;0.65;0.32;;;;;;;28.16;24.57;100657.53;5088687;28;20069;-53
2023/03/19 00:09:26;;;;;;;0.55;0.40;;;;;;;28.17;24.78;100653.63;5087948;28;20040;-50
2023/03/19 00:11:52;;;;;;;0.40;0.40;;;;;;;28.17;24.71;100650.06;5088091;28;20107;-51
2023/03/19 00:14:17;;;;;;;0.50;0.40;;;;;;;28.13;24.60;100651.81;5087583;28;20032;-55
2023/03/19 00:16:43;;;;;;;0.40;0.40;;;;;;;28.05;24.33;100641.50;5091250;28;20123;-49
2023/03/19 00:19:08;;;;;;;1.27;0.45;;;;;;;28.17;24.25;100656.38;5089268;28;20040;-50
2023/03/19 00:21:34;;;;;;;0.57;0.50;;;;;;;28.14;24.22;100640.47;5088697;28;20032;-49
2023/03/19 00:24:02;;;;;;;1.15;0.40;;;;;;;28.08;24.38;100652.75;5090313;28;20033;-48
2023/03/19 00:26:29;;;;;;;0.32;0.32;;;;;;;28.07;24.14;100648.31;5088203;28;20139;-49
2023/03/19 00:28:56;;;;;;;5.30;0.40;;;;;;;28.12;24.09;100653.75;5091464;28;20361;-52
2023/03/19 00:31:23;;;;;;;0.32;0.30;;;;;;;28.04;24.34;100659.16;5090137;28;20055;-49
2023/03/19 00:33:48;;;;;;;0.40;0.40;;;;;;;27.83;24.78;100656.78;5089425;28;20495;-51
2023/03/19 00:36:17;;;;;;;0.47;0.30;;;;;;;27.92;24.77;100665.22;5089722;28;20040;-49
2023/03/19 00:38:44;;;;;;;0.30;0.30;;;;;;;27.79;25.40;100659.31;5089908;28;20177;-50
2023/03/19 00:41:09;;;;;;;0.47;0.38;;;;;;;27.86;24.95;100663.63;5089175;28;20105;-53
2023/03/19 00:43:35;;;;;;;0.43;0.40;;;;;;;27.83;25.32;100664.25;5089093;28;20408;-50
2023/03/19 00:46:01;;;;;;;0.30;0.30;;;;;;;27.66;25.59;100631.72;5090024;28;20078;-48
2023/03/19 00:48:26;;;;;;;0.38;0.38;;;;;;;27.73;25.26;100638.47;5090400;28;20028;-49
2023/03/19 00:50:52;;;;;;;1.73;0.30;;;;;;;27.76;25.67;100657.16;5090981;28;20082;-50
2023/03/19 00:53:17;;;;;;;0.25;0.25;;;;;;;27.84;25.56;100663.94;5089530;28;20125;-51
2023/03/19 00:55:43;;;;;;;0.35;0.30;;;;;;;27.80;25.55;100668.41;5090653;28;20078;-52
2023/03/19 00:58:09;;;;;;;0.63;0.50;;;;;;;27.71;25.57;100657.28;5090416;28;20028;-52
2023/03/19 01:00:36;;;;;;;0.20;0.20;;;;;;;27.84;25.38;100676.91;5092153;28;20064;-52
2023/03/19 01:03:02;;;;;;;0.55;0.38;;;;;;;27.80;25.50;100665.66;5094952;28;20024;-49
2023/03/19 01:05:28;;;;;;;0.30;0.30;;;;;;;27.87;25.34;100668.03;5094793;28;20060;-50
2023/03/19 01:07:54;;;;;;;0.30;0.30;;;;;;;27.86;25.67;100669.13;5092970;28;20028;-52
2023/03/19 01:10:21;;;;;;;0.20;0.20;;;;;;;27.68;25.57;100649.59;5094631;28;20032;-51
2023/03/19 01:12:47;;;;;;;0.80;0.32;;;;;;;27.78;25.58;100670.66;5094556;28;20024;-49
2023/03/19 01:15:13;;;;;;;0.40;0.25;;;;;;;27.80;25.61;100660.13;5093495;28;20028;-50
2023/03/19 01:17:38;;;;;;;0.52;0.32;;;;;;;27.59;25.50;100632.13;5093830;28;20460;-52
2023/03/19 01:20:11;;;;;;;0.40;0.32;;;;;;;27.78;25.56;100667.91;5094678;28;20024;-49
2023/03/19 01:22:37;;;;;;;0.40;0.38;;;;;;;27.79;25.55;100661.28;5094414;28;20023;-50
2023/03/19 01:25:04;;;;;;;0.40;0.40;;;;;;;27.80;25.55;100660.97;5094469;28;20032;-52
2023/03/19 01:27:29;;;;;;;0.30;0.30;;;;;;;27.59;25.25;100641.19;5093807;28;20036;-50
2023/03/19 01:29:55;;;;;;;0.35;0.30;;;;;;;27.63;25.43;100648.88;5093035;28;20406;-48
2023/03/19 01:32:20;;;;;;;0.32;0.30;;;;;;;27.81;25.13;100659.84;5094454;28;20024;-52
2023/03/19 01:34:45;;;;;;;0.32;0.20;;;;;;;27.73;25.50;100652.28;5094449;28;20468;-52
2023/03/19 01:37:11;;;;;;;0.30;0.30;;;;;;;27.41;25.53;100608.97;5094290;28;20130;-51
2023/03/19 01:39:37;;;;;;;0.70;0.40;;;;;;;27.64;25.18;100647.75;5093935;28;20028;-53
2023/03/19 01:42:02;;;;;;;0.35;0.35;;;;;;;27.65;25.47;100649.38;5094042;28;20518;-48
2023/03/19 01:44:36;;;;;;;0.82;0.30;;;;;;;27.67;25.23;100647.16;5092894;28;20028;-50
2023/03/19 01:47:06;;;;;;;0.40;0.32;;;;;;;27.57;25.28;100657.25;5093929;28;20077;-48
2023/03/19 01:49:33;;;;;;;0.30;0.30;;;;;;;27.51;25.09;100650.19;5075761;28;20032;-48
2023/03/19 01:52:02;;;;;;;0.45;0.43;;;;;;;27.55;25.29;100651.22;5092935;28;20056;-50
2023/03/19 01:54:30;;;;;;;0.20;0.20;;;;;;;27.50;25.09;100650.47;5093758;28;20510;-50
2023/03/19 01:57:04;;;;;;;0.40;0.20;;;;;;;27.51;25.14;100646.63;5093435;28;20107;-50
2023/03/19 01:59:44;;;;;;;0.30;0.20;;;;;;;27.49;25.32;100646.91;5093679;28;20028;-50
2023/03/19 02:02:32;;;;;;;0.20;0.20;;;;;;;27.52;25.41;100651.81;5093110;28;20028;-48
2023/03/19 02:05:06;;;;;;;0.20;0.20;;;;;;;27.56;25.29;100663.91;5093804;28;20429;-51
2023/03/19 02:07:33;;;;;;;1.27;0.30;;;;;;;27.52;25.23;100670.31;5093694;28;20123;-50
2023/03/19 02:10:02;;;;;;;0.32;0.30;;;;;;;27.45;25.49;100667.13;5093016;28;20103;-50
2023/03/19 02:12:28;;;;;;;1.38;0.30;;;;;;;27.34;25.34;100663.72;5093633;28;20048;-50
2023/03/19 02:14:53;;;;;;;0.55;0.20;;;;;;;27.40;25.54;100663.34;5092660;28;20435;-50
2023/03/19 02:17:20;;;;;;;0.43;0.30;;;;;;;27.36;25.16;100662.31;5093591;28;20024;-48
2023/03/19 02:20:20;;;;;;;0.52;0.40;;;;;;;27.34;25.08;100659.03;5093341;28;20115;-49
2023/03/19 02:22:55;;;;;;;0.20;0.20;;;;;;;27.36;25.11;100656.78;5093304;28;20021;-49
2023/03/19 02:25:32;;;;;;;0.40;0.30;;;;;;;27.37;25.28;100660.34;5093311;28;20035;-53
2023/03/19 02:27:58;;;;;;;0.20;0.20;;;;;;;27.31;25.19;100653.31;5093088;28;20681;-50
2023/03/19 02:30:27;;;;;;;0.30;0.30;;;;;;;27.31;25.07;100656.88;5092782;28;20116;-48
2023/03/19 02:32:53;;;;;;;2.58;0.20;;;;;;;27.26;25.16;100645.09;5093100;28;20035;-50
2023/03/19 02:35:18;;;;;;;0.85;0.30;;;;;;;27.31;24.91;100662.38;5092453;28;20032;-49
2023/03/19 02:37:44;;;;;;;0.30;0.20;;;;;;;27.26;25.24;100651.44;5092851;28;20032;-49
2023/03/19 02:40:19;;;;;;;0.20;0.20;;;;;;;27.24;24.93;100653.66;5092927;28;20035;-48
2023/03/19 02:42:44;;;;;;;0.30;0.30;;;;;;;27.29;24.86;100661.06;5090865;28;20611;-49
2023/03/19 02:45:11;;;;;;;0.82;0.30;;;;;;;27.23;25.07;100674.09;5092124;28;20039;-48
2023/03/19 02:47:36;;;;;;;1.13;0.30;;;;;;;27.17;25.01;100673.34;5092448;28;20024;-49
2023/03/19 02:50:02;;;;;;;0.50;0.30;;;;;;;26.91;25.09;100628.81;5092267;28;20545;-49
2023/03/19 02:52:27;;;;;;;0.40;0.15;;;;;;;27.08;25.07;100655.84;5092640;28;20408;-49
2023/03/19 02:54:53;;;;;;;0.10;0.10;;;;;;;27.06;25.05;100658.09;5091181;28;20388;-52
2023/03/19 02:57:18;;;;;;;0.30;0.30;;;;;;;27.10;24.88;100653.59;5091987;28;20043;-53
2023/03/19 02:59:44;;;;;;;0.20;0.20;;;;;;;27.15;24.38;100674.75;5091756;28;20032;-48
2023/03/19 03:02:10;;;;;;;0.15;0.15;;;;;;;27.03;24.97;100665.00;5092586;28;20020;-50
2023/03/19 03:04:38;;;;;;;0.75;0.10;;;;;;;27.07;24.67;100662.47;5092875;28;20476;-49
2023/03/19 03:07:04;;;;;;;0.20;0.20;;;;;;;27.07;24.83;100667.97;5091883;28;20118;-51
2023/03/19 03:09:29;;;;;;;0.15;0.15;;;;;;;27.07;24.70;100656.16;5092645;28;20467;-50
2023/03/19 03:11:55;;;;;;;0.20;0.20;;;;;;;27.10;24.60;100650.84;5092623;28;20024;-49
2023/03/19 03:14:20;;;;;;;0.10;0.10;;;;;;;27.13;24.60;100660.44;5092284;28;20434;-50
2023/03/19 03:16:46;;;;;;;0.17;0.17;;;;;;;27.09;24.69;100659.41;5092219;28;20117;-49
2023/03/19 03:19:12;;;;;;;0.28;0.10;;;;;;;27.11;24.44;100659.94;5092356;28;20034;-51
2023/03/19 03:21:38;;;;;;;0.35;0.20;;;;;;;27.06;24.78;100663.59;5091671;28;20032;-50
2023/03/19 03:24:04;;;;;;;0.38;0.20;;;;;;;27.10;24.74;100652.75;5091232;28;20047;-49
2023/03/19 03:26:29;;;;;;;0.20;0.20;;;;;;;27.11;24.67;100651.66;5091934;28;20020;-51
2023/03/19 03:28:55;;;;;;;0.25;0.25;;;;;;;27.14;24.73;100654.63;5092181;28;20085;-50
2023/03/19 03:31:21;;;;;;;0.43;0.30;;;;;;;27.11;24.58;100654.41;5092051;28;20047;-52
2023/03/19 03:33:46;;;;;;;0.65;0.30;;;;;;;27.16;24.58;100649.63;5091823;28;20130;-52
2023/03/19 03:36:12;;;;;;;0.20;0.20;;;;;;;27.07;24.62;100662.47;5091620;28;20032;-49
2023/03/19 03:38:38;;;;;;;0.30;0.30;;;;;;;26.92;24.26;100638.72;5092040;28;20028;-50
2023/03/19 03:41:04;;;;;;;0.32;0.20;;;;;;;27.02;24.36;100660.63;5091439;28;20042;-51
2023/03/19 03:43:30;;;;;;;0.17;0.17;;;;;;;27.11;24.31;100670.97;5091524;28;20102;-52
2023/03/19 03:45:56;;;;;;;0.65;0.28;;;;;;;27.08;24.37;100666.88;5091854;28;20449;-53
2023/03/19 03:48:21;;;;;;;0.20;0.20;;;;;;;27.12;24.29;100669.84;5091729;28;20035;-50
2023/03/19 03:50:47;;;;;;;0.17;0.10;;;;;;;27.05;24.40;100670.22;5091156;28;20024;-49
2023/03/19 03:53:13;;;;;;;1.67;0.45;;;;;;;26.92;24.35;100641.47;5091196;28;20101;-52
2023/03/19 03:55:39;;;;;;;0.10;0.10;;;;;;;26.95;24.29;100660.19;5090687;28;20044;-50
2023/03/19 03:58:05;;;;;;;0.20;0.20;;;;;;;26.92;24.38;100657.19;5091112;28;20020;-52
2023/03/19 04:00:30;;;;;;;0.20;0.20;;;;;;;26.99;24.03;100654.88;5091169;28;20035;-51
2023/03/19 04:02:56;;;;;;;3.08;0.20;;;;;;;26.97;24.05;100640.59;5091479;28;20039;-51
2023/03/19 04:05:21;;;;;;;0.35;0.20;;;;;;;26.96;24.18;100641.69;5091885;28;20024;-51
2023/03/19 04:07:47;;;;;;;0.30;0.20;;;;;;;26.97;24.08;100644.16;5091601;28;20066;-50
2023/03/19 04:10:14;;;;;;;0.20;0.20;;;;;;;26.84;24.16;100636.66;5090510;28;20039;-52
2023/03/19 04:12:40;;;;;;;0.10;0.10;;;;;;;26.95;24.05;100651.06;5072407;28;20361;-51
2023/03/19 04:15:07;;;;;;;0.10;0.10;;;;;;;26.90;24.13;100651.97;5091215;28;20111;-52
2023/03/19 04:17:34;;;;;;;0.20;0.20;;;;;;;26.92;24.19;100647.00;5091352;28;20089;-50
2023/03/19 04:20:00;;;;;;;0.20;0.20;;;;;;;26.96;24.04;100652.72;5090956;28;20406;-51
2023/03/19 04:22:26;;;;;;;0.20;0.20;;;;;;;26.89;23.71;100638.50;5091530;28;20032;-51
2023/03/19 04:24:51;;;;;;;0.22;0.20;;;;;;;26.87;23.99;100643.50;5091369;28;20024;-49
2023/03/19 04:27:17;;;;;;;0.17;0.17;;;;;;;26.82;23.92;100636.94;5091396;28;20054;-51
2023/03/19 04:29:42;;;;;;;0.08;0.08;;;;;;;26.88;23.98;100656.97;5091170;28;20050;-51
2023/03/19 04:32:08;;;;;;;0.20;0.20;;;;;;;26.91;23.95;100652.78;5091311;28;20078;-53
2023/03/19 04:34:33;;;;;;;0.45;0.20;;;;;;;26.85;23.82;100630.81;5090853;28;20691;-51
2023/03/19 04:36:59;;;;;;;0.20;0.15;;;;;;;26.99;23.92;100646.63;5094646;28;20031;-49
2023/03/19 04:39:25;;;;;;;0.28;0.28;;;;;;;26.81;23.73;100640.81;5095299;28;20028;-52
2023/03/19 04:41:51;;;;;;;0.13;0.13;;;;;;;26.95;23.69;100642.81;5095366;28;20077;-51
2023/03/19 04:44:17;;;;;;;0.10;0.10;;;;;;;26.84;23.89;100628.38;5094522;28;20024;-49
2023/03/19 04:46:44;;;;;;;0.57;0.17;;;;;;;26.91;23.68;100637.06;5093755;28;20031;-50
2023/03/19 04:49:10;;;;;;;0.20;0.20;;;;;;;26.94;23.46;100636.47;5093610;28;20058;-52
2023/03/19 04:51:35;;;;;;;0.25;0.10;;;;;;;26.97;23.37;100629.56;5094725;28;20036;-49
2023/03/19 04:54:01;;;;;;;0.22;0.10;;;;;;;26.83;23.43;100602.75;5094933;28;20097;-52
2023/03/19 04:56:26;;;;;;;0.17;0.10;;;;;;;26.77;23.32;100609.47;5094915;28;20380;-50
2023/03/19 04:58:53;;;;;;;0.20;0.20;;;;;;;26.89;23.44;100625.53;5094764;28;20032;-51
2023/03/19 05:01:18;;;;;;;0.10;0.10;;;;;;;26.90;23.40;100620.84;5094341;28;20071;-49
2023/03/19 05:03:44;;;;;;;0.10;0.10;;;;;;;26.92;23.29;100621.38;5094179;28;20494;-52
2023/03/19 05:06:09;;;;;;;0.10;0.10;;;;;;;26.79;23.67;100614.69;5094980;28;20499;-50
2023/03/19 05:08:34;;;;;;;0.13;0.13;;;;;;;26.82;23.38;100625.13;5094722;28;20492;-50
2023/03/19 05:11:00;;;;;;;0.10;0.10;;;;;;;26.79;22.98;100618.25;5094943;28;20023;-49
2023/03/19 05:13:25;;;;;;;0.10;0.10;;;;;;;26.62;23.30;100590.41;5094775;28;20487;-53
2023/03/19 05:15:53;;;;;;;0.10;0.10;;;;;;;26.89;23.26;100636.56;5094326;28;20047;-48
2023/03/19 05:18:19;;;;;;;0.20;0.10;;;;;;;26.88;23.19;100639.63;5093572;28;20043;-49
2023/03/19 05:20:45;;;;;;;0.20;0.10;;;;;;;26.90;23.07;100642.91;5094533;28;20380;-53
2023/03/19 05:23:10;;;;;;;0.35;0.20;;;;;;;26.82;23.31;100647.16;5094309;28;20028;-49
2023/03/19 05:25:36;;;;;;;0.10;0.10;;;;;;;26.68;23.39;100655.34;5093835;28;20043;-49
2023/03/19 05:28:04;;;;;;;0.20;0.20;;;;;;;26.63;23.40;100647.13;5094535;28;20110;-52
2023/03/19 05:30:30;;;;;;;0.00;0.00;;;;;;;26.67;23.40;100645.44;5093696;28;20034;-52
2023/03/19 05:32:57;;;;;;;0.10;0.10;;;;;;;26.70;23.27;100650.34;5094167;28;20438;-49
2023/03/19 05:35:23;;;;;;;0.10;0.10;;;;;;;26.67;23.32;100661.97;5094084;28;20028;-52
2023/03/19 05:37:49;;;;;;;0.00;0.00;;;;;;;26.62;22.61;100646.31;5093749;28;20048;-52
2023/03/19 05:40:15;;;;;;;0.10;0.10;;;;;;;26.71;23.00;100660.25;5094063;28;20141;-48
2023/03/19 05:42:41;;;;;;;0.10;0.10;;;;;;;26.63;23.13;100647.13;5094054;28;20036;-48
2023/03/19 05:45:07;;;;;;;0.10;0.10;;;;;;;26.66;23.09;100654.81;5092030;28;20024;-54
2023/03/19 05:47:33;;;;;;;0.10;0.10;;;;;;;26.62;23.47;100662.03;5092971;28;20034;-53
2023/03/19 05:49:59;;;;;;;0.10;0.10;;;;;;;26.59;23.22;100665.34;5091818;28;20468;-52
2023/03/19 05:52:25;;;;;;;0.10;0.10;;;;;;;26.69;23.02;100664.41;5093373;28;20093;-48
2023/03/19 05:54:50;;;;;;;0.00;0.00;;;;;;;26.67;22.93;100666.66;5092174;28;20479;-52
2023/03/19 05:57:15;;;;;;;0.22;0.10;;;;;;;26.63;22.92;100666.41;5093702;28;20384;-52
2023/03/19 05:59:41;;;;;;;0.10;0.10;;;;;;;26.61;22.98;100668.66;5093795;28;20476;-49
2023/03/19 06:02:07;;;;;;;0.10;0.10;;;;;;;26.59;22.92;100668.09;5093641;28;20035;-48
2023/03/19 06:04:33;;;;;;;0.10;0.10;;;;;;;26.61;22.94;100669.47;5092752;28;20028;-51
2023/03/19 06:06:58;;;;;;;0.32;0.20;;;;;;;26.58;22.84;100670.03;5093333;28;20028;-51
2023/03/19 06:09:24;;;;;;;0.13;0.10;;;;;;;26.57;22.78;100668.41;5092805;28;20043;-51
2023/03/19 06:11:49;;;;;;;0.10;0.10;;;;;;;26.69;22.74;100661.66;5092802;28;20035;-48
2023/03/19 06:14:15;;;;;;;0.20;0.10;;;;;;;26.59;22.80;100670.84;5093168;28;20028;-51
2023/03/19 06:16:40;;;;;;;0.32;0.00;;;;;;;26.60;22.59;100675.28;5093353;28;20108;-49
2023/03/19 06:19:06;;;;;;;0.10;0.10;;;;;;;26.59;22.67;100676.38;5093214;28;20097;-50
2023/03/19 06:21:31;;;;;;;0.10;0.10;;;;;;;26.62;22.70;100681.31;5092977;28;20032;-52
2023/03/19 06:23:57;;;;;;;0.10;0.10;;;;;;;26.56;22.45;100676.94;5093094;28;20027;-49
2023/03/19 06:26:23;;;;;;;0.13;0.13;;;;;;;26.53;22.71;100694.09;5093084;28;20028;-53
2023/03/19 06:28:49;;;;;;;0.43;0.10;;;;;;;26.60;22.45;100692.63;5092696;28;20055;-51
2023/03/19 06:31:14;;;;;;;0.10;0.10;;;;;;;26.61;22.58;100697.00;5093094;28;20496;-53
2023/03/19 06:33:40;;;;;;;0.00;0.00;;;;;;;26.54;22.76;100692.97;5093133;28;20040;-52
2023/03/19 06:36:06;;;;;;;0.10;0.10;;;;;;;26.57;22.48;100695.94;5093259;28;20582;-53
2023/03/19 06:38:32;;;;;;;0.10;0.10;;;;;;;26.58;22.58;100700.34;5092882;28;20039;-51
2023/03/19 06:40:58;;;;;;;0.10;0.10;;;;;;;26.44;22.63;100680.97;5091586;28;20377;-50
2023/03/19 06:43:23;;;;;;;0.10;0.10;;;;;;;26.54;22.40;100685.53;5091928;28;20032;-49
2023/03/19 06:45:48;;;;;;;0.10;0.10;;;;;;;26.61;22.32;100686.00;5091173;28;20073;-50
2023/03/19 06:48:14;;;;;;;0.10;0.10;;;;;;;26.44;22.36;100671.88;5092328;28;20356;-49
2023/03/19 06:50:40;;;;;;;0.10;0.10;;;;;;;26.55;22.41;100675.31;5090932;28;20034;-53
2023/03/19 06:53:06;;;;;;;0.20;0.05;;;;;;;26.56;22.33;100687.97;5092193;28;20128;-50
2023/03/19 06:55:32;;;;;;;0.10;0.10;;;;;;;26.56;22.23;100688.81;5091236;28;20032;-53
2023/03/19 06:57:58;;;;;;;0.10;0.10;;;;;;;26.56;22.25;100690.72;5091773;28;20027;-49
2023/03/19 07:00:24;;;;;;;0.17;0.10;;;;;;;26.49;22.23;100688.34;5092089;28;20040;-49
2023/03/19 07:02:49;;;;;;;0.30;0.10;;;;;;;26.59;22.37;100690.94;5091922;28;20097;-50
2023/03/19 07:05:15;;;;;;;0.10;0.10;;;;;;;26.56;22.23;100688.81;5092679;28;20052;-49
2023/03/19 07:07:40;;;;;;;0.10;0.10;;;;;;;26.46;22.25;100678.72;5092402;28;20058;-46
2023/03/19 07:10:07;;;;;;;0.40;0.20;;;;;;;26.60;22.11;100695.38;5092512;28;20036;-50
2023/03/19 07:12:33;;;;;;;0.20;0.00;;;;;;;26.59;22.13;100681.88;5092207;28;20031;-49
2023/03/19 07:14:58;;;;;;;0.10;0.03;;;;;;;26.56;22.05;100683.31;5092034;28;20039;-48
2023/03/19 07:17:24;;;;;;;0.20;0.13;;;;;;;26.62;22.00;100681.31;5091814;28;20365;-48
2023/03/19 07:19:50;;;;;;;0.15;0.10;;;;;;;26.56;22.27;100677.78;5089928;28;20361;-47
2023/03/19 07:22:16;;;;;;;0.17;0.10;;;;;;;26.62;21.93;100681.31;5092108;28;20043;-49
2023/03/19 07:24:41;;;;;;;0.40;0.17;;;;;;;26.48;21.78;100666.59;5091663;28;20402;-49
2023/03/19 07:27:07;;;;;;;0.10;0.10;;;;;;;26.50;22.02;100686.41;5091334;28;20051;-50
2023/03/19 07:29:32;;;;;;;0.10;0.03;;;;;;;26.49;22.02;100690.28;5091465;28;20032;-50
2023/03/19 07:31:58;;;;;;;0.10;0.10;;;;;;;26.32;21.90;100650.28;5090859;28;20466;-48
2023/03/19 07:34:23;;;;;;;7.47;0.20;;;;;;;26.57;21.85;100693.19;5091118;28;20044;-49
2023/03/19 07:36:50;;;;;;;0.10;0.10;;;;;;;26.50;22.15;100695.47;5090884;28;20044;-48
2023/03/19 07:39:15;;;;;;;0.10;0.10;;;;;;;26.46;21.86;100691.69;5091790;28;20464;-50
2023/03/19 07:41:43;;;;;;;0.28;0.20;;;;;;;26.47;22.09;100690.56;5091619;28;20060;-52
2023/03/19 07:44:09;;;;;;;1.60;0.17;;;;;;;26.52;21.90;100689.69;5090683;28;20028;-51
2023/03/19 07:46:35;;;;;;;0.28;0.20;;;;;;;26.51;21.76;100690.81;5091720;28;20535;-48
2023/03/19 07:49:00;;;;;;;0.10;0.10;;;;;;;26.46;21.88;100684.22;5091881;28;20024;-47
2023/03/19 07:51:26;;;;;;;0.10;0.10;;;;;;;26.41;21.70;100678.81;5091428;28;20024;-50
2023/03/19 07:53:51;;;;;;;0.10;0.10;;;;;;;26.53;21.67;100694.91;5090157;28;20488;-48
2023/03/19 07:56:16;;;;;;;0.10;0.10;;;;;;;26.46;21.67;100686.97;5091671;28;20028;-51
2023/03/19 07:58:42;;;;;;;0.10;0.10;;;;;;;26.50;21.83;100701.00;5091211;28;20028;-49
2023/03/19 08:01:07;;;;;;;0.10;0.10;;;;;;;26.44;21.73;100691.97;5090020;28;20039;-50
2023/03/19 08:03:33;;;;;;;0.10;0.10;;;;;;;26.60;21.71;100708.34;5091727;28;20392;-50
2023/03/19 08:05:58;;;;;;;0.10;0.10;;;;;;;26.59;21.73;100710.22;5091883;28;20036;-52
2023/03/19 08:08:24;;;;;;;0.40;0.22;;;;;;;26.56;21.63;100702.59;5091093;28;20036;-52
2023/03/19 08:10:53;;;;;;;0.22;0.10;;;;;;;26.53;21.59;100694.09;5094775;28;20035;-48
2023/03/19 08:13:18;;;;;;;0.17;0.17;;;;;;;26.55;21.71;100711.13;5095118;28;20461;-48
2023/03/19 08:15:43;;;;;;;0.20;0.10;;;;;;;26.52;21.68;100715.28;5095966;28;20043;-53
2023/03/19 08:18:09;;;;;;;0.55;0.20;;;;;;;26.64;21.42;100709.41;5093616;28;20114;-54
2023/03/19 08:20:34;;;;;;;0.20;0.10;;;;;;;26.59;21.50;100703.91;5095834;28;20024;-50
2023/03/19 08:23:00;;;;;;;0.20;0.10;;;;;;;26.66;21.40;100704.41;5095588;28;20453;-51
2023/03/19 08:25:26;;;;;;;0.10;0.10;;;;;;;26.63;21.38;100705.00;5095730;28;20028;-50
2023/03/19 08:27:51;;;;;;;0.40;0.20;;;;;;;26.57;21.33;100690.44;5094810;28;20504;-51
2023/03/19 08:30:17;;;;;;;0.00;0.00;;;;;;;26.61;21.34;100707.22;5095474;28;20043;-48
2023/03/19 08:32:45;;;;;;;0.08;0.08;;;;;;;26.50;21.52;100701.00;5095670;28;20032;-51
2023/03/19 08:35:11;;;;;;;0.10;0.10;;;;;;;26.73;21.16;100704.06;5094887;28;20028;-52
2023/03/19 08:37:37;;;;;;;0.10;0.10;;;;;;;26.74;21.05;100698.22;5095727;28;20483;-51
2023/03/19 08:40:03;;;;;;;0.00;0.00;;;;;;;26.76;21.16;100701.50;5095257;28;20039;-50
2023/03/19 08:42:29;;;;;;;0.10;0.10;;;;;;;26.74;21.11;100705.69;5096091;28;20036;-50
2023/03/19 08:44:54;;;;;;;0.13;0.10;;;;;;;26.75;21.07;100710.09;5094639;28;20111;-49
2023/03/19 08:47:23;;;;;;;0.05;0.05;;;;;;;26.79;21.09;100702.84;5095423;28;20030;-50
2023/03/19 08:49:52;;;;;;;0.10;0.10;;;;;;;26.76;21.11;100703.44;5095393;28;20039;-47
2023/03/19 08:52:19;;;;;;;0.10;0.10;;;;;;;26.69;21.13;100700.22;5094669;28;20040;-48
2023/03/19 08:54:45;;;;;;;0.20;0.20;;;;;;;26.73;20.90;100699.34;5094454;28;20032;-49
2023/03/19 08:57:10;;;;;;;0.20;0.20;;;;;;;26.82;21.00;100692.06;5095886;28;20024;-50
2023/03/19 08:59:36;;;;;;;0.20;0.20;;;;;;;26.78;20.92;100679.16;5095360;28;20020;-52
2023/03/19 09:02:02;;;;;;;1.23;0.10;;;;;;;26.61;21.13;100644.66;5093787;28;20024;-48
2023/03/19 09:04:28;;;;;;;0.10;0.10;;;;;;;26.94;20.91;100672.31;5095057;28;20027;-50
2023/03/19 09:06:53;;;;;;;0.10;0.10;;;;;;;26.98;20.77;100672.53;5095288;28;20032;-49
2023/03/19 09:09:20;;;;;;;0.20;0.20;;;;;;;26.93;20.89;100669.84;5095879;28;20032;-48
2023/03/19 09:11:46;;;;;;;0.10;0.10;;;;;;;26.92;20.87;100674.56;5094338;28;20039;-52
2023/03/19 09:14:15;;;;;;;0.10;0.10;;;;;;;26.87;20.81;100671.06;5095300;28;20028;-50
2023/03/19 09:16:41;;;;;;;0.20;0.20;;;;;;;26.90;20.81;100673.22;5094483;28;20059;-51
2023/03/19 09:19:08;;;;;;;0.63;0.25;;;;;;;26.75;20.78;100669.56;5094617;28;20036;-48
2023/03/19 09:21:35;;;;;;;0.45;0.10;;;;;;;26.88;20.83;100678.22;5094378;28;20064;-51
2023/03/19 09:24:02;;;;;;;0.47;0.28;;;;;;;27.01;20.61;100671.94;5094008;28;20028;-48
2023/03/19 09:26:27;;;;;;;0.38;0.20;;;;;;;26.96;20.58;100675.59;5094226;28;20035;-49
2023/03/19 09:28:53;;;;;;;0.20;0.20;;;;;;;26.96;20.69;100664.56;5094362;28;20101;-49
2023/03/19 09:31:18;;;;;;;0.43;0.10;;;;;;;26.92;20.59;100657.19;5093489;28;20036;-52
2023/03/19 09:33:44;;;;;;;0.10;0.10;;;;;;;26.92;20.60;100663.53;5094486;28;20043;-53
2023/03/19 09:36:09;;;;;;;0.22;0.22;;;;;;;27.03;20.61;100676.03;5094639;28;20500;-51
2023/03/19 09:38:35;;;;;;;0.70;0.10;;;;;;;27.12;20.58;100673.44;5094546;28;20073;-48
2023/03/19 09:41:00;;;;;;;0.45;0.20;;;;;;;27.03;20.49;100669.72;5094471;28;20035;-49
2023/03/19 09:43:44;;;;;;;0.25;0.17;;;;;;;27.04;20.35;100674.09;5092011;28;20039;-50
2023/03/19 09:46:18;;;;;;;0.15;0.15;;;;;;;27.10;20.38;100666.56;5093150;28;20106;-50
2023/03/19 09:48:53;;;;;;;0.20;0.20;;;;;;;27.03;20.54;100670.50;5092474;28;20105;-51
2023/03/19 09:51:29;;;;;;;0.10;0.10;;;;;;;27.16;20.44;100671.69;5093554;28;20024;-47
2023/03/19 09:54:03;;;;;;;0.30;0.20;;;;;;;27.17;20.27;100667.84;5092828;28;20044;-48
2023/03/19 09:56:31;;;;;;;0.20;0.20;;;;;;;27.14;20.54;100660.16;5093705;28;20940;-49
2023/03/19 09:58:57;;;;;;;0.20;0.20;;;;;;;27.12;20.26;100656.06;5091743;28;20032;-51
2023/03/19 10:01:32;;;;;;;0.20;0.20;;;;;;;26.96;20.43;100655.47;5092559;28;20036;-49
2023/03/19 10:04:28;;;;;;;0.30;0.28;;;;;;;27.07;20.60;100673.50;5094012;28;20364;-51
2023/03/19 10:07:07;;;;;;;0.70;0.20;;;;;;;27.17;20.52;100673.34;5093398;28;20036;-53
2023/03/19 10:09:46;;;;;;;4.15;0.50;;;;;;;27.26;21.75;100667.16;5093084;28;20055;-55
2023/03/19 10:12:33;;;;;;;3.30;0.85;;;;;;;27.19;22.19;100682.13;5093061;28;20452;-50
2023/03/19 10:15:19;;;;;;;4.30;0.80;;;;;;;27.21;22.47;100676.31;5093178;28;20093;-49
2023/03/19 10:17:51;;;;;;;9.63;1.00;;;;;;;27.42;22.88;100674.06;5092616;28;20036;-52
2023/03/19 10:20:42;;;;;;;4.20;1.10;;;;;;;27.55;22.83;100681.56;5092071;28;20381;-52
2023/03/19 10:23:14;;;;;;;5.63;1.17;;;;;;;27.41;23.24;100680.69;5092841;28;20553;-52
2023/03/19 10:25:41;;;;;;;4.97;1.00;;;;;;;27.40;23.41;100676.31;5086676;28;20445;-53
2023/03/19 10:28:15;;;;;;;4.53;1.08;;;;;;;27.40;23.57;100679.88;5090700;28;20476;-51
2023/03/19 10:30:43;;;;;;;2.70;0.95;;;;;;;27.36;23.51;100673.34;5090402;28;20040;-50
2023/03/19 10:33:31;;;;;;;4.93;0.93;;;;;;;27.41;23.62;100689.81;5090156;28;20028;-49
2023/03/19 10:36:02;;;;;;;3.70;0.90;;;;;;;27.22;23.55;100651.19;5089428;28;20054;-52
2023/03/19 10:38:29;;;;;;;6.05;0.75;;;;;;;27.51;23.58;100680.53;5090344;28;20086;-54
2023/03/19 10:41:01;;;;;;;3.35;1.05;;;;;;;27.49;23.36;100668.97;5087963;28;20107;-51
2023/03/19 10:43:28;;;;;;;4.53;0.95;;;;;;;27.37;23.41;100668.63;5088197;28;20539;-50
2023/03/19 10:45:56;;;;;;;4.03;0.90;;;;;;;27.33;23.36;100664.84;5088232;28;20117;-52
2023/03/19 10:48:25;;;;;;;3.05;1.00;;;;;;;27.18;23.32;100658.44;5088112;28;20027;-52
2023/03/19 10:51:00;;;;;;;4.53;0.70;;;;;;;27.38;23.09;100670.28;5091175;28;20036;-54
2023/03/19 10:53:29;;;;;;;4.07;0.88;;;;;;;27.54;23.70;100668.88;5087098;28;20040;-57
2023/03/19 10:56:21;;;;;;;9.07;1.73;;;;;;;27.78;26.01;100677.00;5085111;28;20036;-51
2023/03/19 10:58:57;;;;;;;6.53;1.65;;;;;;;27.89;27.09;100672.13;5088882;28;20051;-51
2023/03/19 11:01:27;;;;;;;8.75;1.70;;;;;;;27.71;27.53;100671.09;5091371;28;20028;-53
2023/03/19 11:03:58;;;;;;;15.35;2.17;;;;;;;27.69;27.73;100675.25;5088124;28;20484;-48
2023/03/19 11:06:26;;;;;;;6.40;1.40;;;;;;;27.75;27.57;100672.09;5082176;28;20063;-49
2023/03/19 11:08:58;;;;;;;8.40;2.03;;;;;;;27.74;27.72;100666.88;5090762;28;20032;-49
2023/03/19 11:11:26;;;;;;;10.27;1.42;;;;;;;27.79;27.57;100664.03;5083629;28;20043;-51
2023/03/19 11:13:51;;;;;;;6.95;1.30;;;;;;;27.85;27.80;100668.31;5089545;28;20086;-50
2023/03/19 11:16:17;;;;;;;7.57;1.45;;;;;;;27.72;27.83;100645.09;5090604;28;20423;-50
2023/03/19 11:18:48;;;;;;;12.02;1.63;;;;;;;27.91;27.46;100658.84;5086143;28;20509;-51
2023/03/19 11:21:22;;;;;;;10.55;1.67;;;;;;;28.07;27.33;100655.81;5090636;28;20417;-48
2023/03/19 11:23:57;;;;;;;6.72;1.70;;;;;;;27.74;27.51;100609.75;5085720;28;20710;-49
2023/03/19 11:26:27;;;;;;;6.82;1.50;;;;;;;28.06;27.28;100659.69;5088259;28;20094;-51